sensor_id;sensor_type;location;lat;lon;timestamp;pressure;altitude;pressure_sealevel;temperature;humidity
11912;BME280;6016;41.928;25.556;2022-12-31T00:01:02;100231.66;;;5.80;76.06
11912;BME280;6016;41.928;25.556;2022-12-31T00:03:29;100227.09;;;5.83;75.86
11912;BME280;6016;41.928;25.556;2022-12-31T00:05:58;100237.34;;;5.88;75.36
11912;BME280;6016;41.928;25.556;2022-12-31T00:08:25;100191.34;;;5.66;74.73
11912;BME280;6016;41.928;25.556;2022-12-31T00:10:52;100233.19;;;5.84;74.37
11912;BME280;6016;41.928;25.556;2022-12-31T00:13:18;100236.66;;;5.84;73.78
11912;BME280;6016;41.928;25.556;2022-12-31T00:15:46;100238.19;;;5.88;74.55
11912;BME280;6016;41.928;25.556;2022-12-31T00:18:12;100208.50;;;5.72;74.28
11912;BME280;6016;41.928;25.556;2022-12-31T00:20:40;100242.94;;;5.98;74.45
11912;BME280;6016;41.928;25.556;2022-12-31T00:23:09;99824.88;;;3.38;73.89
11912;BME280;6016;41.928;25.556;2022-12-31T00:25:36;100240.31;;;5.98;74.80
11912;BME280;6016;41.928;25.556;2022-12-31T00:28:03;100243.56;;;6.03;75.09
11912;BME280;6016;41.928;25.556;2022-12-31T00:30:30;100215.19;;;5.77;74.24
11912;BME280;6016;41.928;25.556;2022-12-31T00:32:57;100250.50;;;6.04;74.23
11912;BME280;6016;41.928;25.556;2022-12-31T00:35:24;100254.97;;;6.02;74.17
11912;BME280;6016;41.928;25.556;2022-12-31T00:37:51;100246.47;;;5.97;74.09
11912;BME280;6016;41.928;25.556;2022-12-31T00:40:20;100248.50;;;5.91;73.86
11912;BME280;6016;41.928;25.556;2022-12-31T00:42:46;100244.09;;;5.92;74.02
11912;BME280;6016;41.928;25.556;2022-12-31T00:45:13;100185.81;;;5.55;75.04
11912;BME280;6016;41.928;25.556;2022-12-31T00:47:40;100255.59;;;5.89;73.60
11912;BME280;6016;41.928;25.556;2022-12-31T00:50:07;100251.53;;;5.84;74.06
11912;BME280;6016;41.928;25.556;2022-12-31T00:52:34;100253.75;;;5.74;74.46
11912;BME280;6016;41.928;25.556;2022-12-31T00:55:01;100249.16;;;5.61;74.77
11912;BME280;6016;41.928;25.556;2022-12-31T00:57:29;100253.03;;;5.54;75.23
11912;BME280;6016;41.928;25.556;2022-12-31T00:59:56;100248.88;;;5.50;75.86
11912;BME280;6016;41.928;25.556;2022-12-31T01:02:23;100264.56;;;5.32;76.27
11912;BME280;6016;41.928;25.556;2022-12-31T01:04:50;100255.94;;;5.48;76.29
11912;BME280;6016;41.928;25.556;2022-12-31T01:07:16;100206.94;;;5.16;74.59
11912;BME280;6016;41.928;25.556;2022-12-31T01:09:43;100241.41;;;5.42;75.48
11912;BME280;6016;41.928;25.556;2022-12-31T01:12:10;100179.34;;;5.11;75.17
11912;BME280;6016;41.928;25.556;2022-12-31T01:14:38;100259.66;;;5.44;75.72
11912;BME280;6016;41.928;25.556;2022-12-31T01:17:05;100273.19;;;5.70;73.60
11912;BME280;6016;41.928;25.556;2022-12-31T01:19:32;100275.25;;;5.63;73.89
11912;BME280;6016;41.928;25.556;2022-12-31T01:21:59;100263.28;;;5.59;73.91
11912;BME280;6016;41.928;25.556;2022-12-31T01:24:26;100234.03;;;5.51;74.60
11912;BME280;6016;41.928;25.556;2022-12-31T01:26:53;100243.84;;;5.63;74.11
11912;BME280;6016;41.928;25.556;2022-12-31T01:29:22;100216.88;;;5.27;74.03
11912;BME280;6016;41.928;25.556;2022-12-31T01:31:50;100252.16;;;5.54;74.72
11912;BME280;6016;41.928;25.556;2022-12-31T01:34:17;100245.00;;;5.57;75.18
11912;BME280;6016;41.928;25.556;2022-12-31T01:36:44;100263.03;;;5.63;74.71
11912;BME280;6016;41.928;25.556;2022-12-31T01:39:11;100257.94;;;5.60;74.25
11912;BME280;6016;41.928;25.556;2022-12-31T01:41:39;100184.63;;;4.91;73.22
11912;BME280;6016;41.928;25.556;2022-12-31T01:44:47;100259.28;;;5.34;73.39
11912;BME280;6016;41.928;25.556;2022-12-31T01:47:18;100253.94;;;5.35;74.52
11912;BME280;6016;41.928;25.556;2022-12-31T01:49:49;100211.09;;;5.03;73.98
11912;BME280;6016;41.928;25.556;2022-12-31T01:52:21;100263.66;;;5.33;73.76
11912;BME280;6016;41.928;25.556;2022-12-31T01:54:50;100271.50;;;5.33;73.63
11912;BME280;6016;41.928;25.556;2022-12-31T01:57:20;100282.66;;;5.37;73.27
11912;BME280;6016;41.928;25.556;2022-12-31T01:59:48;100277.09;;;5.43;73.33
11912;BME280;6016;41.928;25.556;2022-12-31T02:02:17;100281.50;;;5.43;72.99
11912;BME280;6016;41.928;25.556;2022-12-31T02:04:44;100282.66;;;5.37;72.48
11912;BME280;6016;41.928;25.556;2022-12-31T02:07:11;100285.28;;;5.37;73.60
11912;BME280;6016;41.928;25.556;2022-12-31T02:09:39;100259.13;;;5.19;74.01
11912;BME280;6016;41.928;25.556;2022-12-31T02:12:08;100271.66;;;5.30;72.48
11912;BME280;6016;41.928;25.556;2022-12-31T02:14:37;100159.03;;;4.63;72.40
11912;BME280;6016;41.928;25.556;2022-12-31T02:17:09;100195.09;;;4.91;73.61
11912;BME280;6016;41.928;25.556;2022-12-31T02:20:16;100254.22;;;5.31;73.77
11912;BME280;6016;41.928;25.556;2022-12-31T02:23:14;100259.97;;;5.38;74.19
11912;BME280;6016;41.928;25.556;2022-12-31T02:26:03;100253.19;;;5.33;73.94
11912;BME280;6016;41.928;25.556;2022-12-31T02:28:50;100255.91;;;5.32;74.51
11912;BME280;6016;41.928;25.556;2022-12-31T02:31:24;100257.44;;;5.36;74.69
11912;BME280;6016;41.928;25.556;2022-12-31T02:33:56;100245.88;;;5.23;73.84
11912;BME280;6016;41.928;25.556;2022-12-31T02:36:27;100234.19;;;5.12;73.22
11912;BME280;6016;41.928;25.556;2022-12-31T02:38:57;100269.59;;;5.37;73.67
11912;BME280;6016;41.928;25.556;2022-12-31T02:41:25;100278.03;;;5.42;73.75
11912;BME280;6016;41.928;25.556;2022-12-31T02:44:20;100279.50;;;5.48;73.98
11912;BME280;6016;41.928;25.556;2022-12-31T02:46:54;100272.56;;;5.47;74.46
11912;BME280;6016;41.928;25.556;2022-12-31T02:49:32;100223.56;;;5.15;73.50
11912;BME280;6016;41.928;25.556;2022-12-31T02:52:07;100285.19;;;5.56;73.18
11912;BME280;6016;41.928;25.556;2022-12-31T02:54:43;100262.34;;;5.42;72.86
11912;BME280;6016;41.928;25.556;2022-12-31T02:57:19;100298.88;;;5.61;72.71
11912;BME280;6016;41.928;25.556;2022-12-31T02:59:51;100293.75;;;5.60;73.09
11912;BME280;6016;41.928;25.556;2022-12-31T03:02:41;100285.97;;;5.58;73.43
11912;BME280;6016;41.928;25.556;2022-12-31T03:05:11;100230.78;;;5.28;73.45
11912;BME280;6016;41.928;25.556;2022-12-31T03:07:39;100288.81;;;5.71;73.71
11912;BME280;6016;41.928;25.556;2022-12-31T03:10:07;100252.28;;;5.52;73.11
11912;BME280;6016;41.928;25.556;2022-12-31T03:12:35;100288.72;;;5.73;72.97
11912;BME280;6016;41.928;25.556;2022-12-31T03:15:17;100251.56;;;5.48;72.45
11912;BME280;6016;41.928;25.556;2022-12-31T03:17:52;100265.19;;;5.55;73.41
11912;BME280;6016;41.928;25.556;2022-12-31T03:20:22;100272.34;;;5.52;73.66
11912;BME280;6016;41.928;25.556;2022-12-31T03:23:09;100276.88;;;5.48;72.31
11912;BME280;6016;41.928;25.556;2022-12-31T03:25:36;99771.44;;;2.36;71.54
11912;BME280;6016;41.928;25.556;2022-12-31T03:28:04;100259.50;;;5.29;72.77
11912;BME280;6016;41.928;25.556;2022-12-31T03:30:33;100182.78;;;4.76;72.46
11912;BME280;6016;41.928;25.556;2022-12-31T03:33:02;100290.28;;;5.42;73.05
11912;BME280;6016;41.928;25.556;2022-12-31T03:35:31;100296.59;;;5.38;73.34
11912;BME280;6016;41.928;25.556;2022-12-31T03:37:58;100293.44;;;5.31;73.15
11912;BME280;6016;41.928;25.556;2022-12-31T03:40:27;100260.50;;;5.09;73.64
11912;BME280;6016;41.928;25.556;2022-12-31T03:42:54;100292.03;;;5.24;73.74
11912;BME280;6016;41.928;25.556;2022-12-31T03:45:22;100294.94;;;5.17;74.44
11912;BME280;6016;41.928;25.556;2022-12-31T03:47:49;100217.13;;;4.50;74.43
11912;BME280;6016;41.928;25.556;2022-12-31T03:50:18;100231.34;;;4.62;74.42
11912;BME280;6016;41.928;25.556;2022-12-31T03:52:45;100225.88;;;4.49;74.71
11912;BME280;6016;41.928;25.556;2022-12-31T03:55:13;100227.41;;;4.54;74.19
11912;BME280;6016;41.928;25.556;2022-12-31T03:57:40;100307.06;;;5.01;75.10
11912;BME280;6016;41.928;25.556;2022-12-31T04:00:10;100300.31;;;4.97;74.23
11912;BME280;6016;41.928;25.556;2022-12-31T04:02:38;100276.44;;;4.85;74.26
11912;BME280;6016;41.928;25.556;2022-12-31T04:05:05;100305.72;;;5.11;74.72
11912;BME280;6016;41.928;25.556;2022-12-31T04:07:34;100309.09;;;5.13;73.15
11912;BME280;6016;41.928;25.556;2022-12-31T04:10:01;100304.50;;;5.18;73.97
11912;BME280;6016;41.928;25.556;2022-12-31T04:12:28;100320.97;;;5.20;73.52
11912;BME280;6016;41.928;25.556;2022-12-31T04:14:55;100319.03;;;5.24;73.96
11912;BME280;6016;41.928;25.556;2022-12-31T04:17:22;100308.66;;;5.23;74.74
11912;BME280;6016;41.928;25.556;2022-12-31T04:19:49;100286.81;;;5.06;74.37
11912;BME280;6016;41.928;25.556;2022-12-31T04:22:15;100304.25;;;5.23;73.90
11912;BME280;6016;41.928;25.556;2022-12-31T04:24:44;100311.28;;;5.23;74.14
11912;BME280;6016;41.928;25.556;2022-12-31T04:27:12;100316.56;;;5.21;73.75
11912;BME280;6016;41.928;25.556;2022-12-31T04:29:39;100303.94;;;5.12;74.02
11912;BME280;6016;41.928;25.556;2022-12-31T04:32:06;100295.25;;;5.11;73.46
11912;BME280;6016;41.928;25.556;2022-12-31T04:34:34;100331.88;;;5.29;73.68
11912;BME280;6016;41.928;25.556;2022-12-31T04:37:01;100297.09;;;5.09;73.12
11912;BME280;6016;41.928;25.556;2022-12-31T04:39:28;100320.88;;;5.22;73.44
11912;BME280;6016;41.928;25.556;2022-12-31T04:41:56;100322.81;;;5.18;73.31
11912;BME280;6016;41.928;25.556;2022-12-31T04:44:23;100327.34;;;5.15;73.10
11912;BME280;6016;41.928;25.556;2022-12-31T04:46:50;100320.09;;;5.02;73.92
11912;BME280;6016;41.928;25.556;2022-12-31T04:49:17;100332.09;;;5.24;73.89
11912;BME280;6016;41.928;25.556;2022-12-31T04:51:44;100330.56;;;5.20;73.33
11912;BME280;6016;41.928;25.556;2022-12-31T04:54:11;100324.81;;;4.94;72.66
11912;BME280;6016;41.928;25.556;2022-12-31T04:56:37;100289.94;;;4.76;73.33
11912;BME280;6016;41.928;25.556;2022-12-31T04:59:06;100139.22;;;4.03;74.69
11912;BME280;6016;41.928;25.556;2022-12-31T05:01:33;100344.34;;;5.24;74.04
11912;BME280;6016;41.928;25.556;2022-12-31T05:04:01;100346.53;;;5.33;74.09
11912;BME280;6016;41.928;25.556;2022-12-31T05:06:28;100346.31;;;5.38;73.14
11912;BME280;6016;41.928;25.556;2022-12-31T05:08:55;100276.78;;;4.97;73.01
11912;BME280;6016;41.928;25.556;2022-12-31T05:11:22;100348.06;;;5.37;72.99
11912;BME280;6016;41.928;25.556;2022-12-31T05:13:48;100348.69;;;5.42;73.88
11912;BME280;6016;41.928;25.556;2022-12-31T05:16:17;100258.81;;;4.71;72.67
11912;BME280;6016;41.928;25.556;2022-12-31T05:18:43;100325.22;;;5.04;71.85
11912;BME280;6016;41.928;25.556;2022-12-31T05:21:19;100289.47;;;4.87;72.38
11912;BME280;6016;41.928;25.556;2022-12-31T05:23:47;100318.03;;;5.09;73.34
11912;BME280;6016;41.928;25.556;2022-12-31T05:26:14;100314.34;;;5.13;71.90
11912;BME280;6016;41.928;25.556;2022-12-31T05:28:41;100276.66;;;4.81;72.44
11912;BME280;6016;41.928;25.556;2022-12-31T05:31:08;100309.69;;;5.01;72.29
11912;BME280;6016;41.928;25.556;2022-12-31T05:33:36;100365.94;;;5.10;72.03
11912;BME280;6016;41.928;25.556;2022-12-31T05:36:06;100291.81;;;4.55;72.24
11912;BME280;6016;41.928;25.556;2022-12-31T05:38:36;100336.06;;;4.96;73.22
11912;BME280;6016;41.928;25.556;2022-12-31T05:41:05;100331.50;;;4.82;72.43
11912;BME280;6016;41.928;25.556;2022-12-31T05:43:32;100343.28;;;4.91;72.10
11912;BME280;6016;41.928;25.556;2022-12-31T05:46:04;100370.59;;;5.03;72.23
11912;BME280;6016;41.928;25.556;2022-12-31T05:48:31;100377.41;;;5.07;72.27
11912;BME280;6016;41.928;25.556;2022-12-31T05:50:59;100359.69;;;4.75;71.92
11912;BME280;6016;41.928;25.556;2022-12-31T05:53:26;100384.38;;;5.06;72.80
11912;BME280;6016;41.928;25.556;2022-12-31T05:55:53;100372.41;;;5.20;73.11
11912;BME280;6016;41.928;25.556;2022-12-31T05:58:20;100362.94;;;5.17;73.02
11912;BME280;6016;41.928;25.556;2022-12-31T06:00:49;100306.38;;;4.97;72.93
11912;BME280;6016;41.928;25.556;2022-12-31T06:03:16;100341.41;;;5.12;72.44
11912;BME280;6016;41.928;25.556;2022-12-31T06:05:43;100331.50;;;5.19;72.29
11912;BME280;6016;41.928;25.556;2022-12-31T06:08:11;100354.38;;;5.33;72.16
11912;BME280;6016;41.928;25.556;2022-12-31T06:10:39;100336.16;;;4.95;72.89
11912;BME280;6016;41.928;25.556;2022-12-31T06:13:06;100331.91;;;4.92;73.22
11912;BME280;6016;41.928;25.556;2022-12-31T06:15:36;100399.88;;;5.48;73.92
11912;BME280;6016;41.928;25.556;2022-12-31T06:18:03;100215.53;;;4.46;72.93
11912;BME280;6016;41.928;25.556;2022-12-31T06:20:30;100396.28;;;5.68;73.57
11912;BME280;6016;41.928;25.556;2022-12-31T06:23:00;100288.41;;;5.09;72.76
11912;BME280;6016;41.928;25.556;2022-12-31T06:25:28;100347.63;;;5.46;72.63
11912;BME280;6016;41.928;25.556;2022-12-31T06:27:57;100406.66;;;5.87;72.73
11912;BME280;6016;41.928;25.556;2022-12-31T06:30:24;100400.75;;;5.84;71.58
11912;BME280;6016;41.928;25.556;2022-12-31T06:32:51;100387.53;;;5.69;71.43
11912;BME280;6016;41.928;25.556;2022-12-31T06:35:18;100415.00;;;5.96;72.45
11912;BME280;6016;41.928;25.556;2022-12-31T06:37:47;100412.94;;;6.02;72.65
11912;BME280;6016;41.928;25.556;2022-12-31T06:40:14;100283.97;;;5.28;72.60
11912;BME280;6016;41.928;25.556;2022-12-31T06:42:42;100414.13;;;6.14;72.31
11912;BME280;6016;41.928;25.556;2022-12-31T06:45:10;100394.63;;;6.02;72.25
11912;BME280;6016;41.928;25.556;2022-12-31T06:47:37;100414.31;;;6.27;72.68
11912;BME280;6016;41.928;25.556;2022-12-31T06:50:04;100387.75;;;6.17;72.15
11912;BME280;6016;41.928;25.556;2022-12-31T06:52:40;100418.09;;;6.39;71.40
11912;BME280;6016;41.928;25.556;2022-12-31T06:55:15;100374.91;;;6.13;72.49
11912;BME280;6016;41.928;25.556;2022-12-31T06:57:43;100420.06;;;6.52;72.35
11912;BME280;6016;41.928;25.556;2022-12-31T07:00:11;100419.50;;;6.63;72.64
11912;BME280;6016;41.928;25.556;2022-12-31T07:02:57;100425.25;;;6.69;71.75
11912;BME280;6016;41.928;25.556;2022-12-31T07:05:34;100392.72;;;6.40;71.11
11912;BME280;6016;41.928;25.556;2022-12-31T07:08:18;100404.31;;;6.18;71.93
11912;BME280;6016;41.928;25.556;2022-12-31T07:10:51;100439.97;;;6.38;71.92
11912;BME280;6016;41.928;25.556;2022-12-31T07:16:31;100427.88;;;6.69;72.19
11912;BME280;6016;41.928;25.556;2022-12-31T07:19:09;100432.31;;;6.85;71.63
11912;BME280;6016;41.928;25.556;2022-12-31T07:21:45;100246.38;;;5.82;71.29
11912;BME280;6016;41.928;25.556;2022-12-31T07:24:16;100259.50;;;5.98;70.45
11912;BME280;6016;41.928;25.556;2022-12-31T07:26:53;100418.91;;;6.73;70.33
11912;BME280;6016;41.928;25.556;2022-12-31T07:29:33;100445.94;;;6.92;70.66
11912;BME280;6016;41.928;25.556;2022-12-31T07:32:09;100419.94;;;6.87;70.86
11912;BME280;6016;41.928;25.556;2022-12-31T07:34:54;100463.16;;;7.13;70.23
11912;BME280;6016;41.928;25.556;2022-12-31T07:37:29;100452.06;;;7.24;70.09
11912;BME280;6016;41.928;25.556;2022-12-31T07:40:04;100382.41;;;6.86;69.92
11912;BME280;6016;41.928;25.556;2022-12-31T07:42:39;100447.56;;;7.26;69.59
11912;BME280;6016;41.928;25.556;2022-12-31T07:45:16;100391.00;;;6.72;70.71
11912;BME280;6016;41.928;25.556;2022-12-31T07:47:45;100458.66;;;7.15;70.59
11912;BME280;6016;41.928;25.556;2022-12-31T07:50:14;100409.22;;;6.92;70.02
11912;BME280;6016;41.928;25.556;2022-12-31T07:52:42;100453.34;;;7.17;70.74
11912;BME280;6016;41.928;25.556;2022-12-31T07:55:11;100342.28;;;6.68;70.30
11912;BME280;6016;41.928;25.556;2022-12-31T07:57:43;100285.22;;;6.41;69.72
11912;BME280;6016;41.928;25.556;2022-12-31T08:00:18;100478.06;;;7.61;70.17
11912;BME280;6016;41.928;25.556;2022-12-31T08:03:10;100475.38;;;7.77;69.05
11912;BME280;6016;41.928;25.556;2022-12-31T08:05:49;100475.25;;;7.80;69.73
11912;BME280;6016;41.928;25.556;2022-12-31T08:08:26;100481.75;;;7.89;69.05
11912;BME280;6016;41.928;25.556;2022-12-31T08:11:03;100470.34;;;8.50;69.24
11912;BME280;6016;41.928;25.556;2022-12-31T08:13:32;100469.78;;;9.32;65.44
11912;BME280;6016;41.928;25.556;2022-12-31T08:16:02;100417.03;;;8.77;64.82
11912;BME280;6016;41.928;25.556;2022-12-31T08:18:29;100432.78;;;8.48;66.05
11912;BME280;6016;41.928;25.556;2022-12-31T08:21:06;100457.94;;;8.37;67.51
11912;BME280;6016;41.928;25.556;2022-12-31T08:23:39;100483.28;;;9.40;65.35
11912;BME280;6016;41.928;25.556;2022-12-31T08:26:21;100340.91;;;8.88;64.13
11912;BME280;6016;41.928;25.556;2022-12-31T08:29:09;100430.88;;;9.22;64.52
11912;BME280;6016;41.928;25.556;2022-12-31T08:31:46;100269.53;;;8.23;65.28
11912;BME280;6016;41.928;25.556;2022-12-31T08:34:24;100448.06;;;9.28;65.78
11912;BME280;6016;41.928;25.556;2022-12-31T08:37:00;100468.22;;;9.14;66.08
11912;BME280;6016;41.928;25.556;2022-12-31T08:39:49;100462.19;;;9.27;66.84
11912;BME280;6016;41.928;25.556;2022-12-31T08:42:24;100467.63;;;9.38;66.53
11912;BME280;6016;41.928;25.556;2022-12-31T08:44:59;100470.94;;;9.55;66.40
11912;BME280;6016;41.928;25.556;2022-12-31T08:47:38;100460.41;;;9.55;66.94
11912;BME280;6016;41.928;25.556;2022-12-31T08:50:13;100402.09;;;9.47;66.62
11912;BME280;6016;41.928;25.556;2022-12-31T08:52:41;100266.59;;;8.57;65.90
11912;BME280;6016;41.928;25.556;2022-12-31T08:55:12;100460.47;;;9.68;67.41
11912;BME280;6016;41.928;25.556;2022-12-31T08:57:45;100452.50;;;9.82;67.48
11912;BME280;6016;41.928;25.556;2022-12-31T09:00:17;100445.88;;;9.90;67.34
11912;BME280;6016;41.928;25.556;2022-12-31T09:03:08;100268.28;;;8.85;68.54
11912;BME280;6016;41.928;25.556;2022-12-31T09:05:49;100416.56;;;9.94;67.96
11912;BME280;6016;41.928;25.556;2022-12-31T09:08:24;100443.53;;;10.25;67.80
11912;BME280;6016;41.928;25.556;2022-12-31T09:10:58;100432.84;;;10.27;68.38
11912;BME280;6016;41.928;25.556;2022-12-31T09:13:33;100447.75;;;10.54;68.01
11912;BME280;6016;41.928;25.556;2022-12-31T09:16:06;100445.22;;;10.78;67.53
11912;BME280;6016;41.928;25.556;2022-12-31T09:18:40;100446.38;;;11.00;67.44
11912;BME280;6016;41.928;25.556;2022-12-31T09:21:10;100438.19;;;11.16;66.51
11912;BME280;6016;41.928;25.556;2022-12-31T09:23:39;100438.78;;;11.33;66.78
11912;BME280;6016;41.928;25.556;2022-12-31T09:26:27;100356.72;;;10.98;66.48
11912;BME280;6016;41.928;25.556;2022-12-31T09:29:03;100435.56;;;11.65;66.13
11912;BME280;6016;41.928;25.556;2022-12-31T09:31:37;100405.28;;;11.58;65.73
11912;BME280;6016;41.928;25.556;2022-12-31T09:34:14;100409.75;;;11.68;65.24
11912;BME280;6016;41.928;25.556;2022-12-31T09:36:47;100432.53;;;11.94;64.62
11912;BME280;6016;41.928;25.556;2022-12-31T09:39:21;100356.03;;;11.57;65.34
11912;BME280;6016;41.928;25.556;2022-12-31T09:42:08;100430.97;;;12.16;65.12
11912;BME280;6016;41.928;25.556;2022-12-31T09:45:13;100427.72;;;12.23;64.18
11912;BME280;6016;41.928;25.556;2022-12-31T09:50:58;100402.38;;;12.21;63.99
11912;BME280;6016;41.928;25.556;2022-12-31T09:53:51;100414.78;;;12.43;63.29
11912;BME280;6016;41.928;25.556;2022-12-31T09:56:25;100415.88;;;12.52;64.27
11912;BME280;6016;41.928;25.556;2022-12-31T09:58:59;100399.38;;;12.48;62.66
11912;BME280;6016;41.928;25.556;2022-12-31T10:01:37;100366.78;;;12.48;62.91
11912;BME280;6016;41.928;25.556;2022-12-31T10:07:23;100189.56;;;11.57;62.79
11912;BME280;6016;41.928;25.556;2022-12-31T10:10:05;100293.88;;;12.32;62.52
11912;BME280;6016;41.928;25.556;2022-12-31T10:15:57;100383.72;;;13.02;62.06
11912;BME280;6016;41.928;25.556;2022-12-31T10:18:35;100385.19;;;13.28;61.27
11912;BME280;6016;41.928;25.556;2022-12-31T10:21:17;100332.47;;;13.25;60.47
11912;BME280;6016;41.928;25.556;2022-12-31T10:23:59;100378.25;;;13.81;58.92
11912;BME280;6016;41.928;25.556;2022-12-31T10:26:50;100332.41;;;13.69;58.65
11912;BME280;6016;41.928;25.556;2022-12-31T10:29:24;100380.91;;;14.23;58.25
11912;BME280;6016;41.928;25.556;2022-12-31T10:32:11;100377.22;;;14.45;57.69
11912;BME280;6016;41.928;25.556;2022-12-31T10:34:50;100371.56;;;14.60;56.71
11912;BME280;6016;41.928;25.556;2022-12-31T10:37:20;100323.25;;;14.35;57.15
11912;BME280;6016;41.928;25.556;2022-12-31T10:39:59;100348.94;;;14.66;56.97
11912;BME280;6016;41.928;25.556;2022-12-31T10:42:40;100307.53;;;14.53;56.14
11912;BME280;6016;41.928;25.556;2022-12-31T10:45:28;100343.00;;;14.83;55.24
11912;BME280;6016;41.928;25.556;2022-12-31T10:48:28;100264.34;;;14.41;55.39
11912;BME280;6016;41.928;25.556;2022-12-31T10:54:19;100361.06;;;15.09;54.63
11912;BME280;6016;41.928;25.556;2022-12-31T10:57:27;100353.84;;;15.11;55.09
11912;BME280;6016;41.928;25.556;2022-12-31T11:00:06;100355.75;;;15.09;54.89
11912;BME280;6016;41.928;25.556;2022-12-31T11:03:03;100349.63;;;15.09;55.39
11912;BME280;6016;41.928;25.556;2022-12-31T11:06:10;100281.28;;;14.60;55.35
11912;BME280;6016;41.928;25.556;2022-12-31T11:08:59;100348.88;;;14.97;55.58
11912;BME280;6016;41.928;25.556;2022-12-31T11:11:38;100342.47;;;14.89;55.13
11912;BME280;6016;41.928;25.556;2022-12-31T11:14:34;100335.19;;;14.82;55.14
11912;BME280;6016;41.928;25.556;2022-12-31T11:17:15;100369.84;;;14.80;55.41
11912;BME280;6016;41.928;25.556;2022-12-31T11:19:55;100300.84;;;14.59;54.54
11912;BME280;6016;41.928;25.556;2022-12-31T11:22:44;100333.09;;;14.85;55.27
11912;BME280;6016;41.928;25.556;2022-12-31T11:25:20;100313.22;;;14.80;55.82
11912;BME280;6016;41.928;25.556;2022-12-31T11:28:09;100243.50;;;14.37;55.11
11912;BME280;6016;41.928;25.556;2022-12-31T11:30:46;100331.28;;;14.96;54.97
11912;BME280;6016;41.928;25.556;2022-12-31T11:33:24;100315.38;;;15.05;54.74
11912;BME280;6016;41.928;25.556;2022-12-31T11:36:08;100334.53;;;15.19;54.49
11912;BME280;6016;41.928;25.556;2022-12-31T11:38:44;100337.31;;;15.27;54.01
11912;BME280;6016;41.928;25.556;2022-12-31T11:41:20;100306.56;;;15.25;52.87
11912;BME280;6016;41.928;25.556;2022-12-31T11:43:54;100315.19;;;15.46;53.44
11912;BME280;6016;41.928;25.556;2022-12-31T11:46:52;100277.16;;;15.46;53.59
11912;BME280;6016;41.928;25.556;2022-12-31T11:49:34;100315.59;;;15.81;53.10
11912;BME280;6016;41.928;25.556;2022-12-31T11:55:18;100314.00;;;16.08;51.40
11912;BME280;6016;41.928;25.556;2022-12-31T11:57:50;100261.28;;;15.74;51.52
11912;BME280;6016;41.928;25.556;2022-12-31T12:00:20;100262.09;;;15.84;51.07
11912;BME280;6016;41.928;25.556;2022-12-31T12:02:50;100267.81;;;15.99;51.06
11912;BME280;6016;41.928;25.556;2022-12-31T12:05:19;100317.97;;;16.32;51.04
11912;BME280;6016;41.928;25.556;2022-12-31T12:07:47;100310.06;;;16.40;51.35
11912;BME280;6016;41.928;25.556;2022-12-31T12:10:20;100306.16;;;16.44;51.48
11912;BME280;6016;41.928;25.556;2022-12-31T12:12:49;100285.84;;;16.34;50.78
11912;BME280;6016;41.928;25.556;2022-12-31T12:15:19;100285.31;;;16.30;51.37
11912;BME280;6016;41.928;25.556;2022-12-31T12:17:52;100300.66;;;16.46;50.77
11912;BME280;6016;41.928;25.556;2022-12-31T12:20:20;100296.31;;;16.45;50.32
11912;BME280;6016;41.928;25.556;2022-12-31T12:22:51;100201.56;;;15.86;51.16
11912;BME280;6016;41.928;25.556;2022-12-31T12:25:21;100294.34;;;16.47;50.22
11912;BME280;6016;41.928;25.556;2022-12-31T12:27:50;100264.00;;;16.30;50.37
11912;BME280;6016;41.928;25.556;2022-12-31T12:30:19;100064.16;;;15.01;50.69
11912;BME280;6016;41.928;25.556;2022-12-31T12:32:56;100303.00;;;16.49;50.95
11912;BME280;6016;41.928;25.556;2022-12-31T12:35:25;100284.19;;;16.33;50.94
11912;BME280;6016;41.928;25.556;2022-12-31T12:38:00;100261.81;;;16.25;50.46
11912;BME280;6016;41.928;25.556;2022-12-31T12:40:28;100304.56;;;16.52;50.17
11912;BME280;6016;41.928;25.556;2022-12-31T12:42:56;100260.28;;;16.23;51.03
11912;BME280;6016;41.928;25.556;2022-12-31T12:45:25;100307.22;;;16.52;51.06
11912;BME280;6016;41.928;25.556;2022-12-31T12:47:56;100279.28;;;16.38;50.73
11912;BME280;6016;41.928;25.556;2022-12-31T12:50:33;100309.75;;;16.53;50.48
11912;BME280;6016;41.928;25.556;2022-12-31T12:53:19;100310.88;;;16.51;50.57
11912;BME280;6016;41.928;25.556;2022-12-31T12:55:56;100292.84;;;16.35;50.73
11912;BME280;6016;41.928;25.556;2022-12-31T12:58:40;100310.00;;;16.32;50.67
11912;BME280;6016;41.928;25.556;2022-12-31T13:01:18;100311.50;;;16.35;50.38
11912;BME280;6016;41.928;25.556;2022-12-31T13:04:19;100296.88;;;16.11;51.05
11912;BME280;6016;41.928;25.556;2022-12-31T13:07:01;100313.56;;;16.13;51.00
11912;BME280;6016;41.928;25.556;2022-12-31T13:09:41;100294.56;;;15.88;51.35
11912;BME280;6016;41.928;25.556;2022-12-31T13:12:17;100313.47;;;15.95;50.75
11912;BME280;6016;41.928;25.556;2022-12-31T13:14:54;100313.47;;;15.95;51.25
11912;BME280;6016;41.928;25.556;2022-12-31T13:17:39;100290.41;;;15.75;51.08
11912;BME280;6016;41.928;25.556;2022-12-31T13:20:14;100312.94;;;15.91;51.57
11912;BME280;6016;41.928;25.556;2022-12-31T13:22:49;100301.56;;;15.89;51.07
11912;BME280;6016;41.928;25.556;2022-12-31T13:25:20;100312.75;;;15.83;51.36
11912;BME280;6016;41.928;25.556;2022-12-31T13:27:51;100221.75;;;15.22;51.46
11912;BME280;6016;41.928;25.556;2022-12-31T13:30:25;100164.22;;;14.73;51.66
11912;BME280;6016;41.928;25.556;2022-12-31T13:33:00;100313.53;;;15.55;52.27
11912;BME280;6016;41.928;25.556;2022-12-31T13:35:32;100295.63;;;15.38;52.59
11912;BME280;6016;41.928;25.556;2022-12-31T13:38:03;100321.38;;;15.47;51.75
11912;BME280;6016;41.928;25.556;2022-12-31T13:40:44;100193.66;;;14.70;52.49
11912;BME280;6016;41.928;25.556;2022-12-31T13:43:15;100310.88;;;15.36;52.48
11912;BME280;6016;41.928;25.556;2022-12-31T13:45:47;100308.94;;;15.28;52.61
11912;BME280;6016;41.928;25.556;2022-12-31T13:48:22;100317.44;;;15.22;52.62